sensor_id;sensor_type;location;lat;lon;timestamp;P1;durP1;ratioP1;P2;durP2;ratioP2
13435;SDS011;6790;49.520;8.504;2023-04-07T00:00:57;15.30;;;8.97;;
13435;SDS011;6790;49.520;8.504;2023-04-07T00:03:22;11.27;;;7.83;;
13435;SDS011;6790;49.520;8.504;2023-04-07T00:05:48;15.47;;;8.63;;
13435;SDS011;6790;49.520;8.504;2023-04-07T00:08:13;15.57;;;9.13;;
13435;SDS011;6790;49.520;8.504;2023-04-07T00:10:40;13.90;;;8.20;;
13435;SDS011;6790;49.520;8.504;2023-04-07T00:13:06;15.83;;;8.73;;
13435;SDS011;6790;49.520;8.504;2023-04-07T00:15:31;13.60;;;8.10;;
13435;SDS011;6790;49.520;8.504;2023-04-07T00:17:57;13.37;;;8.53;;
13435;SDS011;6790;49.520;8.504;2023-04-07T00:20:23;11.27;;;7.20;;
13435;SDS011;6790;49.520;8.504;2023-04-07T00:22:48;11.37;;;7.87;;
13435;SDS011;6790;49.520;8.504;2023-04-07T00:25:14;13.97;;;8.03;;
13435;SDS011;6790;49.520;8.504;2023-04-07T00:27:40;12.43;;;8.47;;
13435;SDS011;6790;49.520;8.504;2023-04-07T00:30:06;14.27;;;7.93;;
13435;SDS011;6790;49.520;8.504;2023-04-07T00:32:32;14.67;;;7.77;;
13435;SDS011;6790;49.520;8.504;2023-04-07T00:34:58;12.60;;;8.10;;
13435;SDS011;6790;49.520;8.504;2023-04-07T00:37:23;14.17;;;8.00;;
13435;SDS011;6790;49.520;8.504;2023-04-07T00:39:52;14.40;;;8.43;;
13435;SDS011;6790;49.520;8.504;2023-04-07T00:42:17;12.40;;;7.83;;
13435;SDS011;6790;49.520;8.504;2023-04-07T00:44:43;11.97;;;8.03;;
13435;SDS011;6790;49.520;8.504;2023-04-07T00:47:09;13.80;;;8.07;;
13435;SDS011;6790;49.520;8.504;2023-04-07T00:49:38;11.50;;;7.67;;
13435;SDS011;6790;49.520;8.504;2023-04-07T00:52:04;11.90;;;8.17;;
13435;SDS011;6790;49.520;8.504;2023-04-07T00:54:31;14.73;;;8.27;;
13435;SDS011;6790;49.520;8.504;2023-04-07T00:56:57;14.00;;;7.90;;
13435;SDS011;6790;49.520;8.504;2023-04-07T00:59:22;13.63;;;7.77;;
13435;SDS011;6790;49.520;8.504;2023-04-07T01:04:42;16.13;;;8.20;;
13435;SDS011;6790;49.520;8.504;2023-04-07T01:07:33;11.23;;;7.83;;
13435;SDS011;6790;49.520;8.504;2023-04-07T01:10:16;12.93;;;8.07;;
13435;SDS011;6790;49.520;8.504;2023-04-07T01:13:10;10.90;;;7.67;;
13435;SDS011;6790;49.520;8.504;2023-04-07T01:15:53;12.40;;;7.87;;
13435;SDS011;6790;49.520;8.504;2023-04-07T01:18:26;13.43;;;8.33;;
13435;SDS011;6790;49.520;8.504;2023-04-07T01:20:59;12.57;;;7.43;;
13435;SDS011;6790;49.520;8.504;2023-04-07T01:26:29;11.17;;;7.30;;
13435;SDS011;6790;49.520;8.504;2023-04-07T01:31:50;12.53;;;7.63;;
13435;SDS011;6790;49.520;8.504;2023-04-07T01:34:18;13.90;;;8.83;;
13435;SDS011;6790;49.520;8.504;2023-04-07T01:36:46;10.80;;;8.20;;
13435;SDS011;6790;49.520;8.504;2023-04-07T01:39:14;15.40;;;8.77;;
13435;SDS011;6790;49.520;8.504;2023-04-07T01:41:41;13.20;;;8.70;;
13435;SDS011;6790;49.520;8.504;2023-04-07T01:44:08;13.43;;;8.13;;
13435;SDS011;6790;49.520;8.504;2023-04-07T01:46:35;12.07;;;7.87;;
13435;SDS011;6790;49.520;8.504;2023-04-07T01:49:00;14.30;;;8.27;;
13435;SDS011;6790;49.520;8.504;2023-04-07T01:51:28;12.33;;;8.23;;
13435;SDS011;6790;49.520;8.504;2023-04-07T01:53:55;11.20;;;7.57;;
13435;SDS011;6790;49.520;8.504;2023-04-07T01:56:21;12.07;;;8.13;;
13435;SDS011;6790;49.520;8.504;2023-04-07T01:58:47;10.83;;;7.60;;
13435;SDS011;6790;49.520;8.504;2023-04-07T02:01:13;12.40;;;8.23;;
13435;SDS011;6790;49.520;8.504;2023-04-07T02:03:43;12.60;;;8.00;;
13435;SDS011;6790;49.520;8.504;2023-04-07T02:06:18;14.67;;;8.23;;
13435;SDS011;6790;49.520;8.504;2023-04-07T02:08:49;15.63;;;8.73;;
13435;SDS011;6790;49.520;8.504;2023-04-07T02:11:20;14.57;;;7.97;;
13435;SDS011;6790;49.520;8.504;2023-04-07T02:13:47;19.30;;;9.30;;
13435;SDS011;6790;49.520;8.504;2023-04-07T02:16:16;11.83;;;7.70;;
13435;SDS011;6790;49.520;8.504;2023-04-07T02:18:42;11.97;;;7.73;;
13435;SDS011;6790;49.520;8.504;2023-04-07T02:21:09;14.33;;;8.50;;
13435;SDS011;6790;49.520;8.504;2023-04-07T02:23:39;11.30;;;8.13;;
13435;SDS011;6790;49.520;8.504;2023-04-07T02:26:04;11.43;;;7.57;;
13435;SDS011;6790;49.520;8.504;2023-04-07T02:28:30;12.30;;;8.50;;
13435;SDS011;6790;49.520;8.504;2023-04-07T02:30:56;13.13;;;7.77;;
13435;SDS011;6790;49.520;8.504;2023-04-07T02:33:22;11.83;;;8.30;;
13435;SDS011;6790;49.520;8.504;2023-04-07T02:35:47;11.73;;;8.37;;
13435;SDS011;6790;49.520;8.504;2023-04-07T02:38:13;12.53;;;7.13;;
13435;SDS011;6790;49.520;8.504;2023-04-07T02:40:38;11.60;;;7.53;;
13435;SDS011;6790;49.520;8.504;2023-04-07T02:43:04;11.23;;;7.87;;
13435;SDS011;6790;49.520;8.504;2023-04-07T02:45:30;12.63;;;7.97;;
13435;SDS011;6790;49.520;8.504;2023-04-07T02:47:56;11.40;;;8.07;;
13435;SDS011;6790;49.520;8.504;2023-04-07T02:50:21;12.83;;;8.53;;
13435;SDS011;6790;49.520;8.504;2023-04-07T02:52:47;15.40;;;8.70;;
13435;SDS011;6790;49.520;8.504;2023-04-07T02:55:13;15.87;;;9.07;;
13435;SDS011;6790;49.520;8.504;2023-04-07T02:57:38;12.50;;;8.10;;
13435;SDS011;6790;49.520;8.504;2023-04-07T03:00:04;13.10;;;8.37;;
13435;SDS011;6790;49.520;8.504;2023-04-07T03:02:31;11.67;;;7.17;;
13435;SDS011;6790;49.520;8.504;2023-04-07T03:04:56;13.40;;;7.33;;
13435;SDS011;6790;49.520;8.504;2023-04-07T03:07:22;13.77;;;8.13;;
13435;SDS011;6790;49.520;8.504;2023-04-07T03:09:48;13.47;;;9.07;;
13435;SDS011;6790;49.520;8.504;2023-04-07T03:12:13;11.63;;;7.73;;
13435;SDS011;6790;49.520;8.504;2023-04-07T03:14:39;12.33;;;7.97;;
13435;SDS011;6790;49.520;8.504;2023-04-07T03:17:05;12.90;;;8.37;;
13435;SDS011;6790;49.520;8.504;2023-04-07T03:19:30;12.70;;;8.13;;
13435;SDS011;6790;49.520;8.504;2023-04-07T03:21:56;12.93;;;7.57;;
13435;SDS011;6790;49.520;8.504;2023-04-07T03:24:22;11.83;;;7.57;;
13435;SDS011;6790;49.520;8.504;2023-04-07T03:26:47;13.50;;;7.97;;
13435;SDS011;6790;49.520;8.504;2023-04-07T03:29:15;14.63;;;7.90;;
13435;SDS011;6790;49.520;8.504;2023-04-07T03:31:40;12.73;;;8.27;;
13435;SDS011;6790;49.520;8.504;2023-04-07T03:34:06;13.20;;;8.07;;
13435;SDS011;6790;49.520;8.504;2023-04-07T03:36:32;12.13;;;7.63;;
13435;SDS011;6790;49.520;8.504;2023-04-07T03:38:58;12.33;;;7.47;;
13435;SDS011;6790;49.520;8.504;2023-04-07T03:41:23;14.90;;;8.93;;
13435;SDS011;6790;49.520;8.504;2023-04-07T03:43:49;14.73;;;8.70;;
13435;SDS011;6790;49.520;8.504;2023-04-07T03:46:15;11.37;;;8.10;;
13435;SDS011;6790;49.520;8.504;2023-04-07T03:48:43;13.53;;;9.33;;
13435;SDS011;6790;49.520;8.504;2023-04-07T03:51:09;13.20;;;8.83;;
13435;SDS011;6790;49.520;8.504;2023-04-07T03:53:34;14.13;;;8.67;;
13435;SDS011;6790;49.520;8.504;2023-04-07T03:56:01;12.87;;;8.33;;
13435;SDS011;6790;49.520;8.504;2023-04-07T03:58:27;12.47;;;8.70;;
13435;SDS011;6790;49.520;8.504;2023-04-07T04:00:52;15.37;;;9.40;;
13435;SDS011;6790;49.520;8.504;2023-04-07T04:03:18;14.77;;;9.43;;
13435;SDS011;6790;49.520;8.504;2023-04-07T04:05:44;14.20;;;8.80;;
13435;SDS011;6790;49.520;8.504;2023-04-07T04:08:09;14.13;;;9.57;;
13435;SDS011;6790;49.520;8.504;2023-04-07T04:10:35;15.73;;;8.77;;
13435;SDS011;6790;49.520;8.504;2023-04-07T04:13:01;19.07;;;9.60;;
13435;SDS011;6790;49.520;8.504;2023-04-07T04:15:30;16.33;;;9.03;;
13435;SDS011;6790;49.520;8.504;2023-04-07T04:17:56;15.60;;;9.43;;
13435;SDS011;6790;49.520;8.504;2023-04-07T04:20:22;14.57;;;9.87;;
13435;SDS011;6790;49.520;8.504;2023-04-07T04:22:47;15.40;;;9.13;;
13435;SDS011;6790;49.520;8.504;2023-04-07T04:25:14;14.80;;;9.43;;
13435;SDS011;6790;49.520;8.504;2023-04-07T04:27:41;11.17;;;7.93;;
13435;SDS011;6790;49.520;8.504;2023-04-07T04:30:06;15.77;;;8.73;;
13435;SDS011;6790;49.520;8.504;2023-04-07T04:32:32;15.13;;;8.73;;
13435;SDS011;6790;49.520;8.504;2023-04-07T04:34:58;13.20;;;8.87;;
13435;SDS011;6790;49.520;8.504;2023-04-07T04:37:24;15.53;;;8.23;;
13435;SDS011;6790;49.520;8.504;2023-04-07T04:39:50;11.70;;;8.63;;
13435;SDS011;6790;49.520;8.504;2023-04-07T04:42:16;15.63;;;9.57;;
13435;SDS011;6790;49.520;8.504;2023-04-07T04:44:42;13.87;;;8.90;;
13435;SDS011;6790;49.520;8.504;2023-04-07T04:47:08;14.27;;;8.10;;
13435;SDS011;6790;49.520;8.504;2023-04-07T04:49:33;15.20;;;8.73;;
13435;SDS011;6790;49.520;8.504;2023-04-07T04:52:00;12.03;;;8.57;;
13435;SDS011;6790;49.520;8.504;2023-04-07T04:54:25;12.53;;;8.77;;
13435;SDS011;6790;49.520;8.504;2023-04-07T04:56:51;13.77;;;9.20;;
13435;SDS011;6790;49.520;8.504;2023-04-07T04:59:17;13.40;;;8.60;;
13435;SDS011;6790;49.520;8.504;2023-04-07T05:01:42;13.57;;;8.20;;
13435;SDS011;6790;49.520;8.504;2023-04-07T05:04:08;13.40;;;8.20;;
13435;SDS011;6790;49.520;8.504;2023-04-07T05:06:34;11.27;;;7.80;;
13435;SDS011;6790;49.520;8.504;2023-04-07T05:09:00;12.10;;;8.57;;
13435;SDS011;6790;49.520;8.504;2023-04-07T05:11:25;11.43;;;7.80;;
13435;SDS011;6790;49.520;8.504;2023-04-07T05:13:51;13.47;;;8.07;;
13435;SDS011;6790;49.520;8.504;2023-04-07T05:16:17;14.70;;;8.90;;
13435;SDS011;6790;49.520;8.504;2023-04-07T05:18:42;15.10;;;9.03;;
13435;SDS011;6790;49.520;8.504;2023-04-07T05:21:08;15.00;;;8.77;;
13435;SDS011;6790;49.520;8.504;2023-04-07T05:23:34;10.73;;;8.27;;
13435;SDS011;6790;49.520;8.504;2023-04-07T05:26:00;15.07;;;8.20;;
13435;SDS011;6790;49.520;8.504;2023-04-07T05:28:26;11.60;;;8.00;;
13435;SDS011;6790;49.520;8.504;2023-04-07T05:30:51;10.73;;;7.77;;
13435;SDS011;6790;49.520;8.504;2023-04-07T05:33:17;11.80;;;7.60;;
13435;SDS011;6790;49.520;8.504;2023-04-07T05:35:43;13.10;;;7.90;;
13435;SDS011;6790;49.520;8.504;2023-04-07T05:38:10;10.83;;;7.10;;
13435;SDS011;6790;49.520;8.504;2023-04-07T05:40:36;11.97;;;7.90;;
13435;SDS011;6790;49.520;8.504;2023-04-07T05:43:02;10.73;;;7.27;;
13435;SDS011;6790;49.520;8.504;2023-04-07T05:45:27;14.13;;;8.27;;
13435;SDS011;6790;49.520;8.504;2023-04-07T05:47:53;12.17;;;7.87;;
13435;SDS011;6790;49.520;8.504;2023-04-07T05:50:19;12.63;;;7.67;;
13435;SDS011;6790;49.520;8.504;2023-04-07T05:52:47;11.20;;;7.90;;
13435;SDS011;6790;49.520;8.504;2023-04-07T05:55:13;13.83;;;8.43;;
13435;SDS011;6790;49.520;8.504;2023-04-07T05:57:39;11.80;;;8.23;;
13435;SDS011;6790;49.520;8.504;2023-04-07T06:00:05;11.13;;;7.83;;
13435;SDS011;6790;49.520;8.504;2023-04-07T06:02:32;10.33;;;7.63;;
13435;SDS011;6790;49.520;8.504;2023-04-07T06:04:58;10.87;;;7.17;;
13435;SDS011;6790;49.520;8.504;2023-04-07T06:07:23;11.70;;;7.67;;
13435;SDS011;6790;49.520;8.504;2023-04-07T06:09:49;10.67;;;6.93;;
13435;SDS011;6790;49.520;8.504;2023-04-07T06:12:15;8.73;;;6.47;;
13435;SDS011;6790;49.520;8.504;2023-04-07T06:14:41;11.23;;;7.67;;
13435;SDS011;6790;49.520;8.504;2023-04-07T06:17:06;12.43;;;7.67;;
13435;SDS011;6790;49.520;8.504;2023-04-07T06:19:32;12.30;;;7.13;;
13435;SDS011;6790;49.520;8.504;2023-04-07T06:21:58;11.20;;;7.37;;
13435;SDS011;6790;49.520;8.504;2023-04-07T06:24:24;13.07;;;7.53;;
13435;SDS011;6790;49.520;8.504;2023-04-07T06:26:51;12.00;;;8.13;;
13435;SDS011;6790;49.520;8.504;2023-04-07T06:29:17;9.90;;;7.20;;
13435;SDS011;6790;49.520;8.504;2023-04-07T06:31:42;10.23;;;6.57;;
13435;SDS011;6790;49.520;8.504;2023-04-07T06:34:08;12.83;;;7.17;;
13435;SDS011;6790;49.520;8.504;2023-04-07T06:36:34;10.80;;;7.27;;
13435;SDS011;6790;49.520;8.504;2023-04-07T06:39:03;10.17;;;7.07;;
13435;SDS011;6790;49.520;8.504;2023-04-07T06:41:31;11.73;;;6.93;;
13435;SDS011;6790;49.520;8.504;2023-04-07T06:44:00;10.10;;;6.83;;
13435;SDS011;6790;49.520;8.504;2023-04-07T06:46:26;11.53;;;7.30;;
13435;SDS011;6790;49.520;8.504;2023-04-07T06:48:52;13.03;;;6.97;;
13435;SDS011;6790;49.520;8.504;2023-04-07T06:51:18;10.30;;;7.43;;
13435;SDS011;6790;49.520;8.504;2023-04-07T06:53:44;10.30;;;7.57;;
13435;SDS011;6790;49.520;8.504;2023-04-07T06:56:12;12.90;;;8.03;;
13435;SDS011;6790;49.520;8.504;2023-04-07T06:58:38;14.93;;;9.63;;
13435;SDS011;6790;49.520;8.504;2023-04-07T07:01:04;10.73;;;7.43;;
13435;SDS011;6790;49.520;8.504;2023-04-07T07:03:31;10.10;;;7.17;;
13435;SDS011;6790;49.520;8.504;2023-04-07T07:05:57;10.43;;;7.37;;
13435;SDS011;6790;49.520;8.504;2023-04-07T07:08:24;11.27;;;7.40;;
13435;SDS011;6790;49.520;8.504;2023-04-07T07:10:51;11.53;;;6.87;;
13435;SDS011;6790;49.520;8.504;2023-04-07T07:13:18;10.67;;;7.57;;
13435;SDS011;6790;49.520;8.504;2023-04-07T07:15:47;10.37;;;7.23;;
13435;SDS011;6790;49.520;8.504;2023-04-07T07:18:14;12.47;;;6.83;;
13435;SDS011;6790;49.520;8.504;2023-04-07T07:20:40;9.73;;;6.77;;
13435;SDS011;6790;49.520;8.504;2023-04-07T07:23:06;9.73;;;6.63;;
13435;SDS011;6790;49.520;8.504;2023-04-07T07:25:37;9.20;;;6.90;;
13435;SDS011;6790;49.520;8.504;2023-04-07T07:28:03;9.23;;;6.30;;
13435;SDS011;6790;49.520;8.504;2023-04-07T07:30:29;9.07;;;6.27;;
13435;SDS011;6790;49.520;8.504;2023-04-07T07:32:55;11.40;;;7.03;;
13435;SDS011;6790;49.520;8.504;2023-04-07T07:35:21;10.47;;;6.70;;
13435;SDS011;6790;49.520;8.504;2023-04-07T07:37:49;13.37;;;6.87;;
13435;SDS011;6790;49.520;8.504;2023-04-07T07:40:15;8.77;;;5.97;;
13435;SDS011;6790;49.520;8.504;2023-04-07T07:42:42;9.00;;;6.10;;
13435;SDS011;6790;49.520;8.504;2023-04-07T07:45:07;8.40;;;6.60;;
13435;SDS011;6790;49.520;8.504;2023-04-07T07:47:34;9.97;;;6.80;;
13435;SDS011;6790;49.520;8.504;2023-04-07T07:50:01;8.60;;;6.17;;
13435;SDS011;6790;49.520;8.504;2023-04-07T07:52:28;8.07;;;6.17;;
13435;SDS011;6790;49.520;8.504;2023-04-07T07:54:54;8.87;;;5.70;;
13435;SDS011;6790;49.520;8.504;2023-04-07T07:57:20;8.53;;;6.00;;
13435;SDS011;6790;49.520;8.504;2023-04-07T07:59:45;8.80;;;5.50;;
13435;SDS011;6790;49.520;8.504;2023-04-07T08:02:11;8.30;;;5.77;;
13435;SDS011;6790;49.520;8.504;2023-04-07T08:04:37;6.60;;;5.30;;
13435;SDS011;6790;49.520;8.504;2023-04-07T08:07:03;9.10;;;6.07;;
13435;SDS011;6790;49.520;8.504;2023-04-07T08:09:29;9.97;;;5.67;;
13435;SDS011;6790;49.520;8.504;2023-04-07T08:11:56;8.87;;;5.90;;
13435;SDS011;6790;49.520;8.504;2023-04-07T08:14:22;9.53;;;5.73;;
13435;SDS011;6790;49.520;8.504;2023-04-07T08:16:48;34.67;;;18.20;;
13435;SDS011;6790;49.520;8.504;2023-04-07T08:19:14;14.33;;;7.40;;
13435;SDS011;6790;49.520;8.504;2023-04-07T08:21:40;9.53;;;6.33;;
13435;SDS011;6790;49.520;8.504;2023-04-07T08:24:05;9.90;;;6.17;;
13435;SDS011;6790;49.520;8.504;2023-04-07T08:26:36;9.63;;;6.23;;
13435;SDS011;6790;49.520;8.504;2023-04-07T08:29:02;9.00;;;5.93;;
13435;SDS011;6790;49.520;8.504;2023-04-07T08:31:27;9.13;;;6.50;;
13435;SDS011;6790;49.520;8.504;2023-04-07T08:33:53;11.73;;;7.10;;
13435;SDS011;6790;49.520;8.504;2023-04-07T08:36:22;12.87;;;6.40;;
13435;SDS011;6790;49.520;8.504;2023-04-07T08:38:49;9.60;;;7.23;;
13435;SDS011;6790;49.520;8.504;2023-04-07T08:41:19;9.73;;;6.37;;
13435;SDS011;6790;49.520;8.504;2023-04-07T08:43:55;11.27;;;6.40;;
13435;SDS011;6790;49.520;8.504;2023-04-07T08:46:22;10.27;;;6.30;;
13435;SDS011;6790;49.520;8.504;2023-04-07T08:48:50;7.20;;;5.83;;
13435;SDS011;6790;49.520;8.504;2023-04-07T08:51:22;7.57;;;4.87;;
13435;SDS011;6790;49.520;8.504;2023-04-07T08:53:54;8.87;;;5.80;;
13435;SDS011;6790;49.520;8.504;2023-04-07T08:56:28;8.03;;;4.33;;
13435;SDS011;6790;49.520;8.504;2023-04-07T08:58:56;5.50;;;4.10;;
13435;SDS011;6790;49.520;8.504;2023-04-07T09:01:23;5.17;;;4.00;;
13435;SDS011;6790;49.520;8.504;2023-04-07T09:03:49;5.57;;;3.90;;
13435;SDS011;6790;49.520;8.504;2023-04-07T09:06:15;6.07;;;4.40;;
13435;SDS011;6790;49.520;8.504;2023-04-07T09:08:41;6.87;;;4.57;;
13435;SDS011;6790;49.520;8.504;2023-04-07T09:11:07;6.50;;;5.00;;
13435;SDS011;6790;49.520;8.504;2023-04-07T09:13:33;6.13;;;4.13;;
13435;SDS011;6790;49.520;8.504;2023-04-07T09:16:00;7.83;;;4.47;;
13435;SDS011;6790;49.520;8.504;2023-04-07T09:18:27;6.13;;;4.10;;
13435;SDS011;6790;49.520;8.504;2023-04-07T09:20:53;5.73;;;3.87;;
13435;SDS011;6790;49.520;8.504;2023-04-07T09:23:26;4.70;;;3.83;;
13435;SDS011;6790;49.520;8.504;2023-04-07T09:25:57;5.60;;;3.87;;
13435;SDS011;6790;49.520;8.504;2023-04-07T09:28:24;6.43;;;3.87;;
13435;SDS011;6790;49.520;8.504;2023-04-07T09:30:53;8.13;;;4.33;;
13435;SDS011;6790;49.520;8.504;2023-04-07T09:33:26;12.20;;;7.17;;
13435;SDS011;6790;49.520;8.504;2023-04-07T09:35:52;7.07;;;4.90;;
13435;SDS011;6790;49.520;8.504;2023-04-07T09:38:18;6.37;;;4.70;;
13435;SDS011;6790;49.520;8.504;2023-04-07T09:40:44;5.57;;;4.47;;
13435;SDS011;6790;49.520;8.504;2023-04-07T09:43:16;5.47;;;4.20;;
13435;SDS011;6790;49.520;8.504;2023-04-07T09:45:43;6.07;;;4.50;;
13435;SDS011;6790;49.520;8.504;2023-04-07T09:48:18;6.27;;;4.50;;
13435;SDS011;6790;49.520;8.504;2023-04-07T09:50:45;5.27;;;4.00;;
13435;SDS011;6790;49.520;8.504;2023-04-07T09:53:15;4.83;;;3.90;;
13435;SDS011;6790;49.520;8.504;2023-04-07T09:55:43;6.57;;;3.70;;
13435;SDS011;6790;49.520;8.504;2023-04-07T09:58:12;5.80;;;3.90;;
13435;SDS011;6790;49.520;8.504;2023-04-07T10:00:38;3.83;;;3.50;;
13435;SDS011;6790;49.520;8.504;2023-04-07T10:03:06;4.30;;;3.60;;
13435;SDS011;6790;49.520;8.504;2023-04-07T10:05:33;4.93;;;3.53;;
13435;SDS011;6790;49.520;8.504;2023-04-07T10:08:01;5.43;;;3.70;;
13435;SDS011;6790;49.520;8.504;2023-04-07T10:10:30;4.53;;;3.57;;
13435;SDS011;6790;49.520;8.504;2023-04-07T10:13:01;4.50;;;3.20;;
13435;SDS011;6790;49.520;8.504;2023-04-07T10:15:30;8.20;;;5.77;;
13435;SDS011;6790;49.520;8.504;2023-04-07T10:17:56;3.27;;;2.80;;
13435;SDS011;6790;49.520;8.504;2023-04-07T10:20:22;3.43;;;2.57;;
13435;SDS011;6790;49.520;8.504;2023-04-07T10:22:54;4.07;;;2.90;;
13435;SDS011;6790;49.520;8.504;2023-04-07T10:25:39;4.10;;;3.23;;
13435;SDS011;6790;49.520;8.504;2023-04-07T10:28:05;3.80;;;3.07;;
13435;SDS011;6790;49.520;8.504;2023-04-07T10:30:33;4.83;;;3.20;;
13435;SDS011;6790;49.520;8.504;2023-04-07T10:33:05;4.23;;;3.80;;
13435;SDS011;6790;49.520;8.504;2023-04-07T10:38:29;3.70;;;3.20;;
13435;SDS011;6790;49.520;8.504;2023-04-07T10:40:55;4.23;;;3.80;;
13435;SDS011;6790;49.520;8.504;2023-04-07T10:46:16;5.83;;;3.80;;
13435;SDS011;6790;49.520;8.504;2023-04-07T10:48:42;4.43;;;3.90;;
13435;SDS011;6790;49.520;8.504;2023-04-07T10:51:34;5.83;;;4.10;;
13435;SDS011;6790;49.520;8.504;2023-04-07T10:54:15;8.00;;;4.67;;
13435;SDS011;6790;49.520;8.504;2023-04-07T10:59:28;5.13;;;3.60;;
13435;SDS011;6790;49.520;8.504;2023-04-07T11:02:28;3.40;;;2.40;;
13435;SDS011;6790;49.520;8.504;2023-04-07T11:04:49;2.90;;;2.60;;
13435;SDS011;6790;49.520;8.504;2023-04-07T11:07:14;4.20;;;2.87;;
13435;SDS011;6790;49.520;8.504;2023-04-07T11:09:45;4.17;;;2.90;;
13435;SDS011;6790;49.520;8.504;2023-04-07T11:12:31;3.70;;;2.70;;
13435;SDS011;6790;49.520;8.504;2023-04-07T11:14:56;3.43;;;3.13;;
13435;SDS011;6790;49.520;8.504;2023-04-07T11:17:23;2.93;;;2.63;;
13435;SDS011;6790;49.520;8.504;2023-04-07T11:19:51;5.50;;;3.27;;
13435;SDS011;6790;49.520;8.504;2023-04-07T11:22:18;4.10;;;3.40;;
13435;SDS011;6790;49.520;8.504;2023-04-07T11:24:44;3.17;;;2.87;;
13435;SDS011;6790;49.520;8.504;2023-04-07T11:27:11;4.23;;;3.37;;
13435;SDS011;6790;49.520;8.504;2023-04-07T11:29:38;3.90;;;3.43;;
13435;SDS011;6790;49.520;8.504;2023-04-07T11:32:04;3.93;;;3.47;;
13435;SDS011;6790;49.520;8.504;2023-04-07T11:34:30;3.80;;;2.77;;
13435;SDS011;6790;49.520;8.504;2023-04-07T11:37:17;2.90;;;2.40;;
13435;SDS011;6790;49.520;8.504;2023-04-07T11:39:50;3.20;;;2.90;;
13435;SDS011;6790;49.520;8.504;2023-04-07T11:42:30;8.63;;;4.70;;
13435;SDS011;6790;49.520;8.504;2023-04-07T11:45:00;2.93;;;2.40;;
13435;SDS011;6790;49.520;8.504;2023-04-07T11:50:04;3.00;;;2.40;;
13435;SDS011;6790;49.520;8.504;2023-04-07T11:52:41;2.90;;;2.53;;
13435;SDS011;6790;49.520;8.504;2023-04-07T11:55:18;3.47;;;2.80;;
13435;SDS011;6790;49.520;8.504;2023-04-07T11:57:46;2.83;;;2.40;;
13435;SDS011;6790;49.520;8.504;2023-04-07T12:00:13;2.90;;;2.57;;
13435;SDS011;6790;49.520;8.504;2023-04-07T12:02:52;2.40;;;2.20;;
13435;SDS011;6790;49.520;8.504;2023-04-07T12:05:20;3.57;;;2.57;;
13435;SDS011;6790;49.520;8.504;2023-04-07T12:07:52;4.00;;;3.60;;
13435;SDS011;6790;49.520;8.504;2023-04-07T12:10:23;2.83;;;2.60;;
13435;SDS011;6790;49.520;8.504;2023-04-07T12:12:52;2.77;;;2.50;;
13435;SDS011;6790;49.520;8.504;2023-04-07T12:15:18;4.63;;;2.80;;
13435;SDS011;6790;49.520;8.504;2023-04-07T12:17:45;2.77;;;2.37;;
13435;SDS011;6790;49.520;8.504;2023-04-07T12:20:12;3.00;;;2.70;;
13435;SDS011;6790;49.520;8.504;2023-04-07T12:22:39;3.97;;;2.70;;
13435;SDS011;6790;49.520;8.504;2023-04-07T12:25:05;3.00;;;2.70;;
13435;SDS011;6790;49.520;8.504;2023-04-07T12:27:34;3.97;;;3.50;;
13435;SDS011;6790;49.520;8.504;2023-04-07T12:30:04;4.80;;;3.40;;
13435;SDS011;6790;49.520;8.504;2023-04-07T12:32:31;4.10;;;3.70;;
13435;SDS011;6790;49.520;8.504;2023-04-07T12:34:57;3.60;;;3.10;;
13435;SDS011;6790;49.520;8.504;2023-04-07T12:37:23;3.70;;;2.97;;
13435;SDS011;6790;49.520;8.504;2023-04-07T12:39:49;3.27;;;2.97;;
13435;SDS011;6790;49.520;8.504;2023-04-07T12:42:14;3.10;;;2.80;;
13435;SDS011;6790;49.520;8.504;2023-04-07T12:44:40;4.37;;;3.23;;
13435;SDS011;6790;49.520;8.504;2023-04-07T12:47:06;4.87;;;3.03;;
13435;SDS011;6790;49.520;8.504;2023-04-07T12:49:32;3.73;;;3.33;;
13435;SDS011;6790;49.520;8.504;2023-04-07T12:51:58;4.70;;;3.77;;
13435;SDS011;6790;49.520;8.504;2023-04-07T12:54:26;3.90;;;3.50;;
13435;SDS011;6790;49.520;8.504;2023-04-07T12:57:04;4.10;;;3.20;;
13435;SDS011;6790;49.520;8.504;2023-04-07T12:59:30;4.53;;;3.90;;
13435;SDS011;6790;49.520;8.504;2023-04-07T13:01:58;5.73;;;4.40;;
13435;SDS011;6790;49.520;8.504;2023-04-07T13:04:24;6.47;;;4.57;;
13435;SDS011;6790;49.520;8.504;2023-04-07T13:06:59;5.70;;;4.27;;
13435;SDS011;6790;49.520;8.504;2023-04-07T13:09:26;4.90;;;4.00;;
13435;SDS011;6790;49.520;8.504;2023-04-07T13:11:52;4.80;;;4.23;;
13435;SDS011;6790;49.520;8.504;2023-04-07T13:14:18;5.47;;;4.37;;
13435;SDS011;6790;49.520;8.504;2023-04-07T13:16:43;4.20;;;3.70;;
13435;SDS011;6790;49.520;8.504;2023-04-07T13:19:09;4.30;;;3.40;;
13435;SDS011;6790;49.520;8.504;2023-04-07T13:21:35;4.60;;;3.97;;
13435;SDS011;6790;49.520;8.504;2023-04-07T13:24:00;4.83;;;4.23;;
13435;SDS011;6790;49.520;8.504;2023-04-07T13:26:26;7.00;;;5.17;;
13435;SDS011;6790;49.520;8.504;2023-04-07T13:28:52;33.83;;;22.30;;
13435;SDS011;6790;49.520;8.504;2023-04-07T13:31:18;191.40;;;108.13;;
13435;SDS011;6790;49.520;8.504;2023-04-07T13:33:45;63.30;;;40.60;;
13435;SDS011;6790;49.520;8.504;2023-04-07T13:36:11;16.23;;;13.77;;
13435;SDS011;6790;49.520;8.504;2023-04-07T13:38:37;9.17;;;7.77;;
13435;SDS011;6790;49.520;8.504;2023-04-07T13:41:02;6.93;;;5.73;;
13435;SDS011;6790;49.520;8.504;2023-04-07T13:43:28;11.93;;;6.47;;
13435;SDS011;6790;49.520;8.504;2023-04-07T13:45:54;5.00;;;4.50;;
13435;SDS011;6790;49.520;8.504;2023-04-07T13:48:20;64.87;;;33.97;;
13435;SDS011;6790;49.520;8.504;2023-04-07T13:50:46;441.67;;;253.97;;
13435;SDS011;6790;49.520;8.504;2023-04-07T13:53:12;437.30;;;261.93;;
13435;SDS011;6790;49.520;8.504;2023-04-07T13:55:38;313.40;;;202.43;;
13435;SDS011;6790;49.520;8.504;2023-04-07T13:58:03;1011.27;;;630.33;;
13435;SDS011;6790;49.520;8.504;2023-04-07T14:00:29;699.77;;;486.30;;
13435;SDS011;6790;49.520;8.504;2023-04-07T14:02:55;76.17;;;68.47;;
13435;SDS011;6790;49.520;8.504;2023-04-07T14:05:20;41.47;;;35.67;;
13435;SDS011;6790;49.520;8.504;2023-04-07T14:07:47;50.40;;;35.70;;
13435;SDS011;6790;49.520;8.504;2023-04-07T14:10:13;14.30;;;13.00;;
13435;SDS011;6790;49.520;8.504;2023-04-07T14:12:39;6.33;;;5.73;;
13435;SDS011;6790;49.520;8.504;2023-04-07T14:15:05;5.30;;;4.80;;
13435;SDS011;6790;49.520;8.504;2023-04-07T14:17:31;3.90;;;3.23;;
13435;SDS011;6790;49.520;8.504;2023-04-07T14:19:57;5.93;;;4.63;;
13435;SDS011;6790;49.520;8.504;2023-04-07T14:22:22;4.97;;;3.30;;
13435;SDS011;6790;49.520;8.504;2023-04-07T14:24:48;4.17;;;3.73;;
13435;SDS011;6790;49.520;8.504;2023-04-07T14:27:14;3.67;;;3.37;;
13435;SDS011;6790;49.520;8.504;2023-04-07T14:29:44;3.87;;;3.33;;
13435;SDS011;6790;49.520;8.504;2023-04-07T14:32:12;4.13;;;3.40;;
13435;SDS011;6790;49.520;8.504;2023-04-07T14:34:37;4.23;;;3.60;;
13435;SDS011;6790;49.520;8.504;2023-04-07T14:37:03;4.33;;;3.30;;
13435;SDS011;6790;49.520;8.504;2023-04-07T14:39:29;3.37;;;3.07;;
13435;SDS011;6790;49.520;8.504;2023-04-07T14:41:54;5.80;;;3.57;;
13435;SDS011;6790;49.520;8.504;2023-04-07T14:44:20;3.80;;;3.10;;
13435;SDS011;6790;49.520;8.504;2023-04-07T14:46:46;3.80;;;3.40;;
13435;SDS011;6790;49.520;8.504;2023-04-07T14:49:12;4.03;;;2.93;;
13435;SDS011;6790;49.520;8.504;2023-04-07T14:51:38;5.23;;;3.63;;
13435;SDS011;6790;49.520;8.504;2023-04-07T14:54:04;3.10;;;2.80;;
13435;SDS011;6790;49.520;8.504;2023-04-07T14:56:30;3.87;;;3.40;;
13435;SDS011;6790;49.520;8.504;2023-04-07T14:58:56;3.47;;;3.17;;
13435;SDS011;6790;49.520;8.504;2023-04-07T15:01:22;6.07;;;4.53;;
13435;SDS011;6790;49.520;8.504;2023-04-07T15:03:47;3.10;;;2.83;;
13435;SDS011;6790;49.520;8.504;2023-04-07T15:06:15;2.57;;;2.37;;
13435;SDS011;6790;49.520;8.504;2023-04-07T15:08:41;2.57;;;2.37;;
13435;SDS011;6790;49.520;8.504;2023-04-07T15:11:07;3.73;;;2.77;;
13435;SDS011;6790;49.520;8.504;2023-04-07T15:13:33;3.43;;;3.00;;